Summerland, British Columbia

9:43 AM PDT on August 29, 2014 (GMT -0700)
Rick's Place | Change Station
CLOSE
Current Station
Personal Weather Station
Location: Summerland, British Columbia
Elevation: 1450 ft
Nearby Weather Stations

Elev 1450 ft 49.61 °N, 119.69 °W | Updated 3 seconds ago

Mostly Cloudy
Mostly Cloudy
67.5 °F
Feels Like 67.5 °F
N
2.2
Wind Variable Wind from North
Gusts 4.5 mph

Today is forecast to be nearly the same temperature as yesterday.

Today
High -- | Low -- °F
--% Chance of Precip.
Yesterday
High -- | Low -- °F
Precip. -- in
6:10 AM 7:47 PM
Waxing Crescent, 15% visible
Pressure 29.88 in
Visibility 15.0 miles
Clouds Few 17000 ft
Mostly Cloudy 25000 ft
Dew Point 56 °F
Humidity 66%
Rainfall 0.00 in
Snow Depth Not available.
UV 1 out of 12
Pollen Not available.
Air Quality Not available.
Flu Activity Not available.
METAR CYYF 291600Z 36004KT 290V010 15SM FEW170 BKN250 19/11 A2988 RMK AC2CI5 SLP119 DENSITY ALT 1800FT

More Conditions Fewer Conditions

Pressure 29.88 in
Visibility 15.0 miles
Clouds Few 17000 ft
Mostly Cloudy 25000 ft
Dew Point 56 °F
Humidity 66%
Rainfall 0.00 in
Snow Depth Not available.
UV 1 out of 12
Pollen Not available.
Air Quality Not available.
Flu Activity Not available.
METAR CYYF 291600Z 36004KT 290V010 15SM FEW170 BKN250 19/11 A2988 RMK AC2CI5 SLP119 DENSITY ALT 1800FT

More Conditions Fewer Conditions

10-Day Weather Forecast

Almanac

Astronomy

Aug. 29, 2014 Rise Set
Actual Time 6:10 AM PDT 7:47 PM PDT
Civil Twilight 5:36 AM PDT 8:21 PM PDT
Nautical Twilight 4:55 AM PDT 9:02 PM PDT
Astronomical Twilight 4:09 AM PDT 9:47 PM PDT
Moon 10:29 AM PDT 9:21 PM PDT
Length of Visible Light 14h 44m
Length of Day
13h 37m
Tomorrow will be 3m 31s shorter.
Waxing Crescent, 15% of the Moon is Illuminated
Today
Waxing Crescent
Sep 2
First Quarter
Sep 8
Full
Sep 15
Last Quarter
Sep 24
New

Today's Extremes

Country Highs Country Lows

Community

WunderPhotos

Upload Photos

1,748,285 photos uploaded!

Nearby

Snow Depth

Not available.

Earthquake Activity

City Distance Mag. Time & Date
No recent earthquake activity has been reported nearby.
Minimum magnitude displayed is 2.5.

Coastal Water Temperatures

Place Temperature
No Stations Reporting

Nearby Weather Stations